createdAt,value
2023-01-13T00:00:42.792Z,9.73
2023-01-13T00:05:47.859Z,9.97
2023-01-13T00:10:51.390Z,10.17
2023-01-13T00:15:58.573Z,9.10
2023-01-13T00:21:05.000Z,9.40
2023-01-13T00:26:11.255Z,9.00
2023-01-13T00:31:16.819Z,8.53
2023-01-13T00:36:22.686Z,7.57
2023-01-13T00:41:27.614Z,7.80
2023-01-13T00:46:31.137Z,7.63
2023-01-13T00:51:36.932Z,9.23
2023-01-13T00:56:42.624Z,8.70
2023-01-13T01:01:46.455Z,8.90
2023-01-13T01:06:51.835Z,9.00
2023-01-13T01:11:55.347Z,8.90
2023-01-13T01:16:58.824Z,8.50
2023-01-13T01:22:03.776Z,8.67
2023-01-13T01:27:07.334Z,10.23
2023-01-13T01:32:10.896Z,9.90
2023-01-13T01:37:15.875Z,10.80
2023-01-13T01:42:37.824Z,10.83
2023-01-13T01:47:42.415Z,11.80
2023-01-13T01:52:52.567Z,10.67
2023-01-13T01:58:00.017Z,10.50
2023-01-13T02:03:04.786Z,9.83
2023-01-13T02:08:11.369Z,9.97
2023-01-13T02:13:15.341Z,9.80
2023-01-13T02:18:45.993Z,9.53
2023-01-13T02:24:48.153Z,10.60
2023-01-13T02:30:23.457Z,10.50
2023-01-13T02:35:32.410Z,8.97
2023-01-13T02:40:42.179Z,10.67
2023-01-13T02:45:54.212Z,8.90
2023-01-13T02:51:01.385Z,10.17
2023-01-13T02:56:08.055Z,9.23
2023-01-13T03:01:13.146Z,9.33
2023-01-13T03:06:40.429Z,8.80
2023-01-13T03:11:52.463Z,8.70
2023-01-13T03:17:11.806Z,9.80
2023-01-13T03:22:24.309Z,9.43
2023-01-13T03:27:32.390Z,8.83
2023-01-13T03:32:40.199Z,10.00
2023-01-13T03:37:48.301Z,8.90
2023-01-13T03:43:14.528Z,9.53
2023-01-13T03:48:23.639Z,9.50
2023-01-13T03:53:31.634Z,9.53
2023-01-13T03:58:39.341Z,9.17
2023-01-13T04:03:48.071Z,9.40
2023-01-13T04:08:56.962Z,9.53
2023-01-13T04:14:02.533Z,9.53
2023-01-13T04:19:07.858Z,10.07
2023-01-13T04:24:11.383Z,10.57
2023-01-13T04:29:15.813Z,10.83
2023-01-13T04:34:20.750Z,10.77
2023-01-13T04:39:24.275Z,11.33
2023-01-13T04:44:27.703Z,11.30
2023-01-13T04:49:33.374Z,10.80
2023-01-13T04:54:36.811Z,11.10
2023-01-13T04:59:42.165Z,11.13
2023-01-13T05:04:47.506Z,10.90
2023-01-13T05:09:51.027Z,10.80
2023-01-13T05:15:11.569Z,9.90
2023-01-13T05:20:16.482Z,12.00
2023-01-13T05:25:26.255Z,11.87
2023-01-13T05:30:32.886Z,11.13
2023-01-13T05:35:39.571Z,11.60
2023-01-13T05:41:00.861Z,10.90
2023-01-13T05:46:06.336Z,9.70
2023-01-13T05:51:12.886Z,11.90
2023-01-13T05:56:18.115Z,10.57
2023-01-13T06:01:21.549Z,10.53
2023-01-13T06:06:26.530Z,10.80
2023-01-13T06:11:32.536Z,10.93
2023-01-13T06:16:36.045Z,11.80
2023-01-13T06:21:41.279Z,14.10
2023-01-13T06:26:44.877Z,12.93
2023-01-13T06:31:48.371Z,13.30
2023-01-13T06:36:55.417Z,14.40
2023-01-13T06:42:17.016Z,17.43
2023-01-13T06:47:22.526Z,13.17
2023-01-13T06:52:30.594Z,12.27
2023-01-13T06:57:33.989Z,11.90
2023-01-13T07:02:37.762Z,11.63
2023-01-13T07:07:43.257Z,11.57
2023-01-13T07:13:00.792Z,12.27
2023-01-13T07:18:04.797Z,13.10
2023-01-13T07:23:09.592Z,11.97
2023-01-13T07:28:12.967Z,11.10
2023-01-13T07:33:18.577Z,11.10
2023-01-13T07:38:23.555Z,11.63
2023-01-13T07:43:35.829Z,12.37
2023-01-13T07:48:39.310Z,13.13
2023-01-13T07:53:44.297Z,13.13
2023-01-13T07:58:51.141Z,15.80
2023-01-13T08:03:54.772Z,11.77
2023-01-13T08:09:00.279Z,12.80
2023-01-13T08:14:06.458Z,11.63
2023-01-13T08:19:10.098Z,12.30
2023-01-13T08:24:15.282Z,12.10
2023-01-13T08:29:19.005Z,12.37
2023-01-13T08:34:22.596Z,12.33
2023-01-13T08:39:27.470Z,11.97
2023-01-13T08:44:38.243Z,11.87
2023-01-13T08:49:41.895Z,11.57
2023-01-13T08:54:46.902Z,10.77
2023-01-13T08:59:50.353Z,10.60
2023-01-13T09:04:54.710Z,10.27
2023-01-13T09:09:59.624Z,10.07
2023-01-13T09:15:03.981Z,7.90
2023-01-13T09:20:10.553Z,8.57
2023-01-13T09:25:15.502Z,8.20
2023-01-13T09:30:19.250Z,4.77
2023-01-13T09:35:22.712Z,6.07
2023-01-13T09:40:27.831Z,6.80
2023-01-13T09:45:35.336Z,7.43
2023-01-13T09:51:00.071Z,8.03
2023-01-13T09:56:05.730Z,7.70
2023-01-13T10:01:20.200Z,8.80
2023-01-13T10:06:28.231Z,9.20
2023-01-13T10:11:54.481Z,8.50
2023-01-13T10:17:12.020Z,7.57
2023-01-13T10:22:35.781Z,8.17
2023-01-13T10:27:42.038Z,7.80
2023-01-13T10:32:49.045Z,7.10
2023-01-13T10:37:58.854Z,5.90
2023-01-13T10:43:12.592Z,5.50
2023-01-13T10:48:16.228Z,6.37
2023-01-13T10:53:24.191Z,6.43
2023-01-13T10:58:29.760Z,7.13
2023-01-13T11:03:41.435Z,6.57
2023-01-13T11:08:46.519Z,6.77
2023-01-13T11:14:12.243Z,6.47
2023-01-13T11:19:20.119Z,5.13
2023-01-13T11:24:30.907Z,5.33
2023-01-13T11:29:44.361Z,5.20
2023-01-13T11:34:52.849Z,5.50
2023-01-13T11:40:01.730Z,5.03
2023-01-13T11:45:17.007Z,5.03
2023-01-13T11:50:28.553Z,4.97
2023-01-13T11:55:39.968Z,5.20
2023-01-13T12:01:10.395Z,4.80
2023-01-13T12:06:23.863Z,5.60
2023-01-13T12:11:32.517Z,4.90
2023-01-13T12:16:40.140Z,4.60
2023-01-13T12:22:04.324Z,4.50
2023-01-13T12:27:13.059Z,4.07
2023-01-13T12:32:21.963Z,4.60
2023-01-13T12:37:31.915Z,3.53
2023-01-13T12:42:59.010Z,4.00
2023-01-13T12:48:03.863Z,3.97
2023-01-13T12:53:35.340Z,3.70
2023-01-13T12:58:38.937Z,4.40
2023-01-13T13:04:04.105Z,5.00
2023-01-13T13:09:22.639Z,4.50
2023-01-13T13:15:20.343Z,4.40
2023-01-13T13:21:02.937Z,4.30
2023-01-13T13:26:20.268Z,4.10
2023-01-13T13:31:36.836Z,4.90
2023-01-13T13:36:59.710Z,4.27
2023-01-13T13:42:31.104Z,4.97
2023-01-13T13:47:37.431Z,3.80
2023-01-13T13:52:43.556Z,3.50
2023-01-13T13:57:50.115Z,2.63
2023-01-13T14:02:56.101Z,2.87
2023-01-13T14:08:04.348Z,2.70
2023-01-13T14:13:20.332Z,2.37
2023-01-13T14:18:24.466Z,2.70
2023-01-13T14:23:30.559Z,2.20
2023-01-13T14:28:38.917Z,2.70
2023-01-13T14:33:47.266Z,3.03
2023-01-13T14:39:15.037Z,4.00
2023-01-13T14:44:27.116Z,3.70
2023-01-13T14:49:36.122Z,3.73
2023-01-13T14:54:49.063Z,3.47
2023-01-13T15:00:05.833Z,3.30
2023-01-13T15:05:33.635Z,2.90
2023-01-13T15:10:41.807Z,3.50
2023-01-13T15:15:53.058Z,3.10
2023-01-13T15:20:57.774Z,3.40
2023-01-13T15:26:02.447Z,3.90
2023-01-13T15:31:10.845Z,3.87
2023-01-13T15:36:23.113Z,4.00
2023-01-13T15:41:43.911Z,3.70
2023-01-13T15:46:49.102Z,6.30
2023-01-13T15:51:52.571Z,4.17
2023-01-13T15:56:56.145Z,4.40
2023-01-13T16:02:00.892Z,3.50
2023-01-13T16:07:04.240Z,4.57
2023-01-13T16:12:07.906Z,3.50
2023-01-13T16:17:17.315Z,2.53
2023-01-13T16:22:20.718Z,1.80
2023-01-13T16:27:25.975Z,0.90
2023-01-13T16:32:30.708Z,0.40
2023-01-13T16:37:37.046Z,5.13
2023-01-13T16:42:40.545Z,0.90
2023-01-13T16:47:45.550Z,0.83
2023-01-13T16:52:49.058Z,0.60
2023-01-13T16:57:52.556Z,0.60
2023-01-13T17:02:59.336Z,1.27
2023-01-13T17:08:02.885Z,0.93
2023-01-13T17:13:15.888Z,0.60
2023-01-13T17:18:22.657Z,1.00
2023-01-13T17:23:27.770Z,3.27
2023-01-13T17:28:31.417Z,0.90
2023-01-13T17:33:37.364Z,2.57
2023-01-13T17:38:41.232Z,1.70
2023-01-13T17:43:44.637Z,1.60
2023-01-13T17:48:51.192Z,2.10
2023-01-13T17:53:55.283Z,1.77
2023-01-13T17:58:59.210Z,3.93
2023-01-13T18:04:04.846Z,3.47
2023-01-13T18:09:08.391Z,3.30
2023-01-13T18:14:12.963Z,3.20
2023-01-13T18:19:35.900Z,1.90
2023-01-13T18:25:11.575Z,1.63
2023-01-13T18:30:16.374Z,1.40
2023-01-13T18:35:21.837Z,3.73
2023-01-13T18:40:25.811Z,6.23
2023-01-13T18:45:32.163Z,15.33
2023-01-13T18:50:38.041Z,6.40
2023-01-13T18:55:41.929Z,5.30
2023-01-13T19:00:46.979Z,5.37
2023-01-13T19:05:51.886Z,4.80
2023-01-13T19:10:56.510Z,3.67
2023-01-13T19:16:06.328Z,2.20
2023-01-13T19:21:12.810Z,1.30
2023-01-13T19:26:16.411Z,5.63
2023-01-13T19:31:21.157Z,7.00
2023-01-13T19:36:27.481Z,7.20
2023-01-13T19:41:49.125Z,6.33
2023-01-13T19:46:52.916Z,5.80
2023-01-13T19:52:02.110Z,5.30
2023-01-13T19:57:08.140Z,5.00
2023-01-13T20:02:16.607Z,4.70
2023-01-13T20:07:22.950Z,6.17
2023-01-13T20:12:28.883Z,5.73
2023-01-13T20:17:34.355Z,6.40
2023-01-13T20:22:42.146Z,5.93
2023-01-13T20:27:47.348Z,6.03
2023-01-13T20:32:53.751Z,6.43
2023-01-13T20:37:59.535Z,5.73
2023-01-13T20:43:03.487Z,5.50
2023-01-13T20:48:07.920Z,5.30
2023-01-13T20:53:13.258Z,5.20
2023-01-13T20:58:17.079Z,2.37
2023-01-13T21:03:21.163Z,3.13
2023-01-13T21:08:26.059Z,5.70
2023-01-13T21:13:47.316Z,3.90
2023-01-13T21:19:16.702Z,2.40
2023-01-13T21:24:22.425Z,1.80
2023-01-13T21:29:25.877Z,1.23
2023-01-13T21:34:29.261Z,1.00
2023-01-13T21:39:34.190Z,1.40
2023-01-13T21:44:55.298Z,1.07
2023-01-13T21:49:58.760Z,1.10
2023-01-13T21:55:20.552Z,1.10
2023-01-13T22:00:25.869Z,0.90
2023-01-13T22:05:29.227Z,0.90
2023-01-13T22:10:34.343Z,1.10
2023-01-13T22:15:37.778Z,1.07
2023-01-13T22:20:42.201Z,3.30
2023-01-13T22:25:46.933Z,5.67
2023-01-13T22:30:51.571Z,5.80
2023-01-13T22:35:56.339Z,7.07
2023-01-13T22:41:03.459Z,7.17
2023-01-13T22:46:08.727Z,6.20
2023-01-13T22:51:13.833Z,6.10
2023-01-13T22:56:20.580Z,7.20
2023-01-13T23:01:25.017Z,6.83
2023-01-13T23:06:30.093Z,6.40
2023-01-13T23:11:35.402Z,6.47
2023-01-13T23:16:40.463Z,6.40
2023-01-13T23:21:43.912Z,7.20
2023-01-13T23:26:48.735Z,7.03
2023-01-13T23:31:56.784Z,6.23
2023-01-13T23:37:00.110Z,4.33
2023-01-13T23:42:05.057Z,3.10
2023-01-13T23:47:08.809Z,4.00
2023-01-13T23:52:12.148Z,5.03
2023-01-13T23:57:16.850Z,6.77
